createdAt,value
2018-02-10T00:01:22.265Z,95.72
2018-02-10T00:03:51.473Z,83.53
2018-02-10T00:06:20.694Z,85.00
2018-02-10T00:08:49.915Z,97.60
2018-02-10T00:11:19.148Z,87.93
2018-02-10T00:13:48.427Z,97.65
2018-02-10T00:16:17.640Z,80.38
2018-02-10T00:18:46.951Z,96.70
2018-02-10T00:21:16.169Z,88.05
2018-02-10T00:23:45.376Z,89.78
2018-02-10T00:26:14.600Z,89.62
2018-02-10T00:28:43.809Z,99.65
2018-02-10T00:31:13.062Z,83.50
2018-02-10T00:33:42.273Z,85.53
2018-02-10T00:36:11.505Z,84.37
2018-02-10T00:38:40.720Z,104.32
2018-02-10T00:41:09.944Z,88.03
2018-02-10T00:43:39.196Z,94.78
2018-02-10T00:46:08.432Z,91.55
2018-02-10T00:48:37.636Z,76.18
2018-02-10T00:51:06.842Z,90.47
2018-02-10T00:53:36.131Z,91.95
2018-02-10T00:56:05.441Z,87.15
2018-02-10T00:58:34.689Z,89.62
2018-02-10T01:03:44.205Z,97.85
2018-02-10T01:06:13.432Z,91.68
2018-02-10T01:08:42.978Z,86.50
2018-02-10T01:11:12.222Z,87.28
2018-02-10T01:13:41.462Z,82.97
2018-02-10T01:16:10.692Z,84.25
2018-02-10T01:18:39.924Z,89.57
2018-02-10T01:21:09.195Z,91.82
2018-02-10T01:23:38.416Z,98.55
2018-02-10T01:26:07.657Z,83.32
2018-02-10T01:28:36.868Z,84.53
2018-02-10T01:31:06.152Z,82.45
2018-02-10T01:33:35.377Z,84.57
2018-02-10T01:36:05.245Z,89.95
2018-02-10T01:38:34.476Z,95.55
2018-02-10T01:41:03.689Z,80.05
2018-02-10T01:43:32.926Z,88.97
2018-02-10T01:46:02.144Z,87.65
2018-02-10T01:48:31.355Z,88.07
2018-02-10T01:51:00.671Z,101.45
2018-02-10T01:53:29.889Z,97.82
2018-02-10T01:55:59.229Z,95.80
2018-02-10T01:58:28.432Z,89.22
2018-02-10T02:00:57.655Z,82.18
2018-02-10T02:03:26.883Z,89.53
2018-02-10T02:05:56.094Z,84.00
2018-02-10T02:08:25.328Z,84.82
2018-02-10T02:10:54.543Z,95.47
2018-02-10T02:13:23.764Z,89.20
2018-02-10T02:15:52.991Z,88.62
2018-02-10T02:18:22.232Z,97.95
2018-02-10T02:20:51.740Z,79.43
2018-02-10T02:23:20.961Z,80.97
2018-02-10T02:25:50.243Z,90.85
2018-02-10T02:28:19.481Z,95.03
2018-02-10T02:30:48.753Z,96.53
2018-02-10T02:33:17.976Z,88.95
2018-02-10T02:35:47.238Z,91.85
2018-02-10T02:38:16.481Z,89.00
2018-02-10T02:40:45.699Z,85.12
2018-02-10T02:43:14.933Z,88.18
2018-02-10T02:45:44.171Z,86.12
2018-02-10T02:48:13.573Z,95.40
2018-02-10T02:50:42.815Z,91.50
2018-02-10T02:53:12.072Z,106.57
2018-02-10T02:55:41.308Z,96.50
2018-02-10T02:58:10.508Z,90.43
2018-02-10T03:00:39.715Z,85.70
2018-02-10T03:03:08.945Z,91.30
2018-02-10T03:05:38.256Z,98.87
2018-02-10T03:08:07.485Z,94.65
2018-02-10T03:10:36.718Z,86.20
2018-02-10T03:13:05.929Z,84.50
2018-02-10T03:15:35.147Z,89.65
2018-02-10T03:18:04.382Z,94.80
2018-02-10T03:20:33.670Z,99.28
2018-02-10T03:23:02.888Z,91.20
2018-02-10T03:25:32.185Z,97.97
2018-02-10T03:28:01.421Z,84.00
2018-02-10T03:30:30.636Z,90.03
2018-02-10T03:32:59.867Z,96.70
2018-02-10T03:35:29.083Z,96.40
2018-02-10T03:37:58.356Z,86.35
2018-02-10T03:40:27.556Z,89.57
2018-02-10T03:42:56.817Z,89.87
2018-02-10T03:45:26.040Z,87.35
2018-02-10T03:47:55.337Z,97.03
2018-02-10T03:50:24.551Z,96.72
2018-02-10T03:52:53.773Z,89.50
2018-02-10T03:55:22.996Z,88.28
2018-02-10T03:57:52.217Z,81.35
2018-02-10T04:00:21.461Z,92.55
2018-02-10T04:02:50.681Z,95.78
2018-02-10T04:05:19.960Z,91.95
2018-02-10T04:07:49.188Z,92.12
2018-02-10T04:10:18.631Z,85.82
2018-02-10T04:12:47.903Z,90.12
2018-02-10T04:15:17.151Z,99.95
2018-02-10T04:17:46.455Z,97.75
2018-02-10T04:20:15.807Z,93.80
2018-02-10T04:22:45.060Z,89.57
2018-02-10T04:25:14.343Z,86.78
2018-02-10T04:27:43.549Z,95.18
2018-02-10T04:30:12.771Z,91.60
2018-02-10T04:32:41.997Z,92.22
2018-02-10T04:35:11.272Z,76.90
2018-02-10T04:37:40.535Z,88.00
2018-02-10T04:40:09.809Z,75.80
2018-02-10T04:42:39.032Z,83.72
2018-02-10T04:45:08.277Z,82.05
2018-02-10T04:47:37.482Z,92.95
2018-02-10T04:50:06.689Z,87.20
2018-02-10T04:52:35.911Z,89.35
2018-02-10T04:55:05.140Z,86.20
2018-02-10T04:57:34.380Z,94.68
2018-02-10T05:00:03.632Z,86.60
2018-02-10T05:02:32.859Z,84.50
2018-02-10T05:05:02.101Z,84.05
2018-02-10T05:07:31.361Z,91.82
2018-02-10T05:10:00.578Z,89.60
2018-02-10T05:12:29.818Z,89.03
2018-02-10T05:14:59.143Z,74.30
2018-02-10T05:17:28.384Z,83.55
2018-02-10T05:19:57.597Z,91.75
2018-02-10T05:22:26.843Z,93.78
2018-02-10T05:24:56.059Z,79.57
2018-02-10T05:27:25.272Z,95.47
2018-02-10T05:29:54.659Z,85.60
2018-02-10T05:32:23.867Z,91.50
2018-02-10T05:34:53.102Z,82.80
2018-02-10T05:37:22.344Z,92.15
2018-02-10T05:39:51.597Z,80.10
2018-02-10T05:42:20.876Z,86.03
2018-02-10T05:44:50.099Z,88.18
2018-02-10T05:47:19.316Z,82.22
2018-02-10T05:49:48.535Z,85.95
2018-02-10T05:52:17.801Z,83.78
2018-02-10T05:54:47.011Z,79.90
2018-02-10T05:57:16.281Z,87.00
2018-02-10T05:59:45.604Z,90.47
2018-02-10T06:02:14.803Z,84.10
2018-02-10T06:04:44.028Z,86.72
2018-02-10T06:07:13.244Z,79.93
2018-02-10T06:09:42.460Z,80.47
2018-02-10T06:12:11.683Z,94.87
2018-02-10T06:14:40.957Z,98.47
2018-02-10T06:17:10.182Z,82.90
2018-02-10T06:19:39.435Z,76.53
2018-02-10T06:22:08.659Z,79.97
2018-02-10T06:24:37.998Z,83.65
2018-02-10T06:27:07.474Z,85.78
2018-02-10T06:29:36.709Z,81.70
2018-02-10T06:32:06.031Z,82.25
2018-02-10T06:34:35.319Z,84.07
2018-02-10T06:37:04.546Z,78.90
2018-02-10T06:39:33.770Z,84.60
2018-02-10T06:42:02.996Z,80.35
2018-02-10T06:44:32.269Z,81.35
2018-02-10T06:47:01.488Z,95.97
2018-02-10T06:49:30.740Z,89.15
2018-02-10T06:52:00.000Z,83.82
2018-02-10T06:54:29.320Z,82.65
2018-02-10T06:56:58.568Z,92.50
2018-02-10T06:59:27.806Z,88.97
2018-02-10T07:01:57.022Z,91.85
2018-02-10T07:04:26.353Z,76.50
2018-02-10T07:06:55.618Z,91.28
2018-02-10T07:09:24.956Z,93.70
2018-02-10T07:11:54.183Z,76.12
2018-02-10T07:14:23.454Z,75.22
2018-02-10T07:16:52.763Z,78.07
2018-02-10T07:19:22.011Z,79.10
2018-02-10T07:21:51.220Z,78.78
2018-02-10T07:24:20.447Z,85.75
2018-02-10T07:26:49.657Z,95.32
2018-02-10T07:29:19.100Z,84.35
2018-02-10T07:31:48.352Z,78.35
2018-02-10T07:34:17.567Z,79.25
2018-02-10T07:36:46.777Z,86.47
2018-02-10T07:39:16.118Z,76.35
2018-02-10T07:41:45.367Z,88.62
2018-02-10T07:44:14.715Z,91.87
2018-02-10T07:46:43.927Z,73.07
2018-02-10T07:49:13.153Z,84.57
2018-02-10T07:51:42.376Z,79.65
2018-02-10T07:54:11.585Z,74.20
2018-02-10T07:56:40.811Z,68.07
2018-02-10T07:59:10.021Z,84.22
2018-02-10T08:01:39.199Z,98.20
2018-02-10T08:04:08.412Z,77.75
2018-02-10T08:06:37.657Z,89.43
2018-02-10T08:09:06.902Z,79.43
2018-02-10T08:11:36.138Z,96.12
2018-02-10T08:14:05.532Z,82.82
2018-02-10T08:16:34.742Z,81.30
2018-02-10T08:19:03.977Z,79.68
2018-02-10T08:21:33.194Z,82.60
2018-02-10T08:24:02.426Z,83.62
2018-02-10T08:26:31.836Z,91.97
2018-02-10T08:29:01.052Z,86.12
2018-02-10T08:31:30.271Z,83.30
2018-02-10T08:33:59.520Z,84.22
2018-02-10T08:36:28.728Z,79.53
2018-02-10T08:38:57.997Z,91.35
2018-02-10T08:41:27.218Z,74.15
2018-02-10T08:43:57.075Z,82.90
2018-02-10T08:46:26.324Z,76.12
2018-02-10T08:48:55.528Z,87.57
2018-02-10T08:51:24.760Z,75.47
2018-02-10T08:53:53.983Z,73.28
2018-02-10T08:56:23.212Z,76.80
2018-02-10T08:58:52.436Z,75.53
2018-02-10T09:01:21.638Z,75.43
2018-02-10T09:03:50.911Z,65.85
2018-02-10T09:06:20.116Z,73.78
2018-02-10T09:08:49.330Z,74.00
2018-02-10T09:11:18.610Z,69.95
2018-02-10T09:13:47.823Z,73.93
2018-02-10T09:16:17.042Z,75.03
2018-02-10T09:18:46.347Z,66.50
2018-02-10T09:21:15.637Z,69.35
2018-02-10T09:23:45.019Z,75.20
2018-02-10T09:26:14.241Z,72.72
2018-02-10T09:28:43.534Z,81.65
2018-02-10T09:31:12.749Z,62.97
2018-02-10T09:33:41.994Z,78.00
2018-02-10T09:36:11.418Z,70.22
2018-02-10T09:38:46.839Z,80.43
2018-02-10T09:41:20.687Z,81.75
2018-02-10T09:43:49.913Z,69.75
2018-02-10T09:46:19.154Z,72.72
2018-02-10T09:48:48.888Z,74.25
2018-02-10T09:51:18.165Z,66.03
2018-02-10T09:53:47.387Z,63.33
2018-02-10T09:56:16.705Z,65.28
2018-02-10T09:58:48.368Z,75.22
2018-02-10T10:01:17.716Z,75.53
2018-02-10T10:03:48.059Z,70.32
2018-02-10T10:06:17.337Z,76.95
2018-02-10T10:08:51.026Z,74.53
2018-02-10T10:11:20.665Z,69.95
2018-02-10T10:13:50.081Z,84.90
2018-02-10T10:16:19.881Z,73.43
2018-02-10T10:18:49.601Z,78.05
2018-02-10T10:21:18.828Z,72.20
2018-02-10T10:24:00.301Z,71.37
2018-02-10T10:26:29.537Z,71.78
2018-02-10T10:31:50.449Z,70.62
2018-02-10T10:34:19.735Z,73.93
2018-02-10T10:36:48.968Z,64.82
2018-02-10T10:39:18.277Z,68.22
2018-02-10T10:41:51.817Z,73.60
2018-02-10T10:44:19.407Z,67.40
2018-02-10T10:46:46.997Z,76.55
2018-02-10T10:49:14.591Z,76.30
2018-02-10T10:51:42.155Z,69.93
2018-02-10T10:54:09.875Z,70.72
2018-02-10T10:56:37.639Z,77.43
2018-02-10T10:59:06.021Z,71.62
2018-02-10T11:01:33.604Z,77.03
2018-02-10T11:04:01.716Z,76.68
2018-02-10T11:06:30.006Z,64.20
2018-02-10T11:08:58.508Z,64.75
2018-02-10T11:11:26.174Z,75.25
2018-02-10T11:13:53.781Z,79.68
2018-02-10T11:16:22.116Z,66.57
2018-02-10T11:18:49.728Z,68.70
2018-02-10T11:21:17.303Z,67.68
2018-02-10T11:23:44.877Z,75.50
2018-02-10T11:26:12.478Z,73.80
2018-02-10T11:28:40.049Z,66.35
2018-02-10T11:31:07.634Z,81.22
2018-02-10T11:33:35.270Z,72.05
2018-02-10T11:36:02.840Z,66.32
2018-02-10T11:38:30.405Z,63.50
2018-02-10T11:40:57.998Z,68.10
2018-02-10T11:43:26.332Z,81.40
2018-02-10T11:45:53.897Z,61.40
2018-02-10T11:48:21.485Z,62.05
2018-02-10T11:50:49.054Z,73.93
2018-02-10T11:53:16.644Z,53.97
2018-02-10T11:55:44.228Z,58.90
2018-02-10T11:58:11.878Z,50.83
2018-02-10T12:00:39.554Z,51.97
2018-02-10T12:03:07.172Z,46.50
2018-02-10T12:05:34.780Z,43.17
2018-02-10T12:08:02.436Z,45.85
2018-02-10T12:10:30.748Z,43.83
2018-02-10T12:12:58.312Z,38.00
2018-02-10T12:15:25.886Z,46.58
2018-02-10T12:17:53.478Z,37.65
2018-02-10T12:20:21.048Z,32.20
2018-02-10T12:22:48.609Z,32.58
2018-02-10T12:25:16.206Z,32.85
2018-02-10T12:27:43.788Z,32.35
2018-02-10T12:30:11.351Z,37.33
2018-02-10T12:32:38.946Z,39.47
2018-02-10T12:35:06.536Z,36.17
2018-02-10T12:37:34.865Z,33.33
2018-02-10T12:40:02.435Z,39.85
2018-02-10T12:42:30.015Z,35.80
2018-02-10T12:44:57.588Z,33.28
2018-02-10T12:47:25.173Z,34.78
2018-02-10T12:49:52.748Z,31.83
2018-02-10T12:52:20.304Z,37.20
2018-02-10T12:54:47.884Z,34.05
2018-02-10T12:57:15.464Z,34.15
2018-02-10T12:59:43.023Z,35.30
2018-02-10T13:02:10.593Z,45.67
2018-02-10T13:04:38.149Z,36.15
2018-02-10T13:07:05.738Z,37.15
2018-02-10T13:09:33.296Z,40.97
2018-02-10T13:12:00.860Z,35.28
2018-02-10T13:14:29.214Z,37.20
2018-02-10T13:16:57.590Z,35.10
2018-02-10T13:19:25.132Z,42.53
2018-02-10T13:21:52.691Z,30.60
2018-02-10T13:24:20.276Z,38.45
2018-02-10T13:26:47.832Z,32.88
2018-02-10T13:29:15.392Z,29.17
2018-02-10T13:31:42.972Z,33.33
2018-02-10T13:34:10.573Z,30.62
2018-02-10T13:36:38.148Z,26.73
2018-02-10T13:39:05.751Z,34.22
2018-02-10T13:41:34.074Z,31.33
2018-02-10T13:44:01.633Z,23.25
2018-02-10T13:46:29.237Z,27.27
2018-02-10T13:48:56.824Z,30.02
2018-02-10T13:51:24.387Z,27.42
2018-02-10T13:53:52.850Z,26.20
2018-02-10T13:56:21.654Z,27.98
2018-02-10T13:58:50.438Z,27.17
2018-02-10T14:01:19.001Z,30.42
2018-02-10T14:03:46.580Z,32.35
2018-02-10T14:06:14.148Z,31.08
2018-02-10T14:08:41.728Z,31.65
2018-02-10T14:11:09.382Z,35.15
2018-02-10T14:13:36.969Z,31.92
2018-02-10T14:16:04.567Z,33.67
2018-02-10T14:18:32.139Z,32.08
2018-02-10T14:21:00.487Z,38.08
2018-02-10T14:23:28.041Z,37.95
2018-02-10T14:25:55.645Z,37.55
2018-02-10T14:28:23.225Z,46.30
2018-02-10T14:30:50.782Z,44.60
2018-02-10T14:33:18.356Z,40.38
2018-02-10T14:35:45.932Z,42.83
2018-02-10T14:38:13.534Z,43.00
2018-02-10T14:40:41.076Z,40.05
2018-02-10T14:43:08.693Z,38.67
2018-02-10T14:45:37.052Z,39.70
2018-02-10T14:48:04.660Z,50.05
2018-02-10T14:50:32.998Z,46.85
2018-02-10T14:53:00.563Z,44.65
2018-02-10T14:55:28.120Z,41.45
2018-02-10T14:57:55.693Z,46.35
2018-02-10T15:00:23.258Z,38.83
2018-02-10T15:02:50.851Z,44.90
2018-02-10T15:05:18.423Z,43.90
2018-02-10T15:07:46.033Z,45.28
2018-02-10T15:10:13.660Z,43.42
2018-02-10T15:12:41.248Z,43.40
2018-02-10T15:15:08.842Z,42.40
2018-02-10T15:17:36.410Z,43.22
2018-02-10T15:20:04.004Z,40.55
2018-02-10T15:22:32.321Z,34.88
2018-02-10T15:24:59.906Z,35.05
2018-02-10T15:27:27.522Z,41.45
2018-02-10T15:30:06.793Z,38.90
2018-02-10T15:32:46.934Z,38.20
2018-02-10T15:35:14.509Z,33.83
2018-02-10T15:37:42.142Z,37.63
2018-02-10T15:40:09.800Z,36.90
2018-02-10T15:42:37.365Z,33.97
2018-02-10T15:45:04.960Z,36.28
2018-02-10T15:47:32.672Z,31.27
2018-02-10T15:50:00.236Z,32.97
2018-02-10T15:52:27.810Z,32.13
2018-02-10T15:54:55.361Z,38.80
2018-02-10T15:57:22.923Z,62.65
2018-02-10T15:59:50.478Z,64.32
2018-02-10T16:02:18.041Z,40.83
2018-02-10T16:04:45.607Z,38.50
2018-02-10T16:07:13.943Z,40.88
2018-02-10T16:09:41.520Z,42.70
2018-02-10T16:12:09.088Z,49.10
2018-02-10T16:14:36.661Z,44.17
2018-02-10T16:17:05.876Z,42.38
2018-02-10T16:19:35.088Z,43.28
2018-02-10T16:22:04.306Z,40.47
2018-02-10T16:24:33.556Z,39.15
2018-02-10T16:27:02.761Z,36.33
2018-02-10T16:29:31.981Z,43.40
2018-02-10T16:32:01.207Z,45.97
2018-02-10T16:34:30.445Z,36.42
2018-02-10T16:36:59.668Z,42.05
2018-02-10T16:39:28.873Z,43.87
2018-02-10T16:41:58.161Z,38.55
2018-02-10T16:44:27.367Z,38.38
2018-02-10T16:46:56.601Z,35.65
2018-02-10T16:49:25.807Z,32.03
2018-02-10T16:51:55.035Z,35.58
2018-02-10T16:54:24.279Z,36.10
2018-02-10T16:56:53.476Z,37.88
2018-02-10T16:59:22.688Z,34.50
2018-02-10T17:01:51.899Z,35.25
2018-02-10T17:04:21.115Z,32.40
2018-02-10T17:06:50.341Z,43.50
2018-02-10T17:09:19.559Z,32.40
2018-02-10T17:11:48.790Z,45.10
2018-02-10T17:14:18.058Z,38.50
2018-02-10T17:16:47.241Z,32.33
2018-02-10T17:19:16.477Z,34.35
2018-02-10T17:21:45.675Z,33.90
2018-02-10T17:24:14.891Z,34.60
2018-02-10T17:26:44.151Z,41.60
2018-02-10T17:29:13.365Z,37.03
2018-02-10T17:31:42.579Z,38.72
2018-02-10T17:34:11.797Z,31.77
2018-02-10T17:36:40.996Z,34.47
2018-02-10T17:39:10.221Z,36.50
2018-02-10T17:41:39.429Z,31.15
2018-02-10T17:44:08.651Z,30.17
2018-02-10T17:46:37.852Z,36.15
2018-02-10T17:49:07.068Z,34.13
2018-02-10T17:51:36.300Z,30.48
2018-02-10T17:54:05.540Z,31.00
2018-02-10T17:56:34.779Z,26.70
2018-02-10T17:59:03.986Z,33.35
2018-02-10T18:01:33.195Z,32.22
2018-02-10T18:04:02.442Z,31.20
2018-02-10T18:06:31.647Z,29.48
2018-02-10T18:09:00.884Z,31.00
2018-02-10T18:11:30.139Z,28.15
2018-02-10T18:13:59.482Z,28.33
2018-02-10T18:16:28.717Z,28.90
2018-02-10T18:18:57.935Z,36.05
2018-02-10T18:21:27.186Z,26.92
2018-02-10T18:23:57.216Z,27.35
2018-02-10T18:26:26.440Z,28.35
2018-02-10T18:28:55.685Z,31.83
2018-02-10T18:31:25.054Z,33.72
2018-02-10T18:33:54.286Z,32.97
2018-02-10T18:36:23.565Z,27.95
2018-02-10T18:38:52.796Z,27.35
2018-02-10T18:41:22.010Z,29.48
2018-02-10T18:43:51.368Z,32.78
2018-02-10T18:46:20.574Z,34.03
2018-02-10T18:48:49.803Z,33.78
2018-02-10T18:51:19.045Z,30.50
2018-02-10T18:53:48.268Z,33.88
2018-02-10T18:56:17.494Z,28.87
2018-02-10T18:58:46.716Z,36.13
2018-02-10T19:01:15.948Z,34.72
2018-02-10T19:03:45.159Z,36.20
2018-02-10T19:06:14.391Z,32.83
2018-02-10T19:08:43.609Z,33.33
2018-02-10T19:11:12.824Z,35.67
2018-02-10T19:13:42.045Z,30.00
2018-02-10T19:16:11.313Z,37.85
2018-02-10T19:18:40.551Z,30.37
2018-02-10T19:21:09.760Z,32.13
2018-02-10T19:23:39.001Z,27.67
2018-02-10T19:26:08.219Z,31.08
2018-02-10T19:28:37.437Z,35.80
2018-02-10T19:31:06.656Z,30.48
2018-02-10T19:33:35.855Z,38.35
2018-02-10T19:36:05.093Z,40.38
2018-02-10T19:38:34.320Z,33.50
2018-02-10T19:41:03.629Z,32.53
2018-02-10T19:43:32.798Z,32.45
2018-02-10T19:46:02.011Z,30.20
2018-02-10T19:51:17.465Z,32.95
2018-02-10T19:53:46.679Z,33.05
2018-02-10T19:56:15.908Z,31.17
2018-02-10T19:58:45.124Z,37.53
2018-02-10T20:01:14.330Z,37.33
2018-02-10T20:03:43.544Z,46.85
2018-02-10T20:06:12.787Z,44.53
2018-02-10T20:08:42.002Z,49.85
2018-02-10T20:11:11.236Z,43.13
2018-02-10T20:13:40.457Z,51.42
2018-02-10T20:16:09.669Z,48.20
2018-02-10T20:18:38.874Z,43.83
2018-02-10T20:21:08.110Z,43.60
2018-02-10T20:23:37.344Z,46.67
2018-02-10T20:26:06.570Z,45.58
2018-02-10T20:28:35.784Z,43.38
2018-02-10T20:31:04.987Z,40.63
2018-02-10T20:33:34.212Z,43.25
2018-02-10T20:36:03.440Z,43.92
2018-02-10T20:38:32.707Z,41.63
2018-02-10T20:41:01.919Z,39.80
2018-02-10T20:43:31.185Z,46.03
2018-02-10T20:46:00.416Z,45.10
2018-02-10T20:48:29.662Z,44.60
2018-02-10T20:50:58.925Z,45.33
2018-02-10T20:53:28.115Z,46.08
2018-02-10T20:55:57.359Z,36.70
2018-02-10T20:58:26.564Z,43.92
2018-02-10T21:00:55.792Z,42.67
2018-02-10T21:03:25.074Z,44.67
2018-02-10T21:05:54.282Z,43.35
2018-02-10T21:08:23.607Z,48.33
2018-02-10T21:10:52.806Z,53.20
2018-02-10T21:13:22.050Z,42.83
2018-02-10T21:15:51.270Z,45.67
2018-02-10T21:18:20.475Z,44.90
2018-02-10T21:20:49.756Z,46.40
2018-02-10T21:23:18.965Z,40.47
2018-02-10T21:25:48.199Z,37.72
2018-02-10T21:28:17.408Z,37.83
2018-02-10T21:30:46.611Z,39.03
2018-02-10T21:33:15.833Z,47.13
2018-02-10T21:35:45.046Z,41.13
2018-02-10T21:38:14.273Z,38.78
2018-02-10T21:40:43.509Z,34.80
2018-02-10T21:43:12.877Z,37.45
2018-02-10T21:45:42.099Z,34.03
2018-02-10T21:48:11.305Z,33.25
2018-02-10T21:50:40.525Z,29.48
2018-02-10T21:53:09.733Z,27.37
2018-02-10T21:55:38.940Z,28.20
2018-02-10T21:58:08.191Z,27.73
2018-02-10T22:00:37.414Z,28.50
2018-02-10T22:03:06.640Z,25.62
2018-02-10T22:05:35.852Z,29.00
2018-02-10T22:08:05.073Z,27.60
2018-02-10T22:10:34.295Z,25.25
2018-02-10T22:13:03.495Z,28.60
2018-02-10T22:15:32.704Z,23.02
2018-02-10T22:18:01.932Z,25.88
2018-02-10T22:20:31.178Z,20.08
2018-02-10T22:23:00.411Z,20.27
2018-02-10T22:25:29.645Z,17.33
2018-02-10T22:27:58.881Z,28.08
2018-02-10T22:30:29.172Z,16.92
2018-02-10T22:32:58.427Z,18.27
2018-02-10T22:35:27.637Z,15.35
2018-02-10T22:37:56.848Z,16.48
2018-02-10T22:40:26.057Z,15.23
2018-02-10T22:42:55.259Z,20.02
2018-02-10T22:45:24.473Z,16.30
2018-02-10T22:47:53.686Z,15.25
2018-02-10T22:50:22.918Z,15.50
2018-02-10T22:52:52.119Z,13.85
2018-02-10T22:55:21.342Z,13.90
2018-02-10T22:57:50.544Z,12.18
2018-02-10T23:00:19.751Z,15.00
2018-02-10T23:02:48.983Z,12.65
2018-02-10T23:05:18.191Z,14.60
2018-02-10T23:07:47.416Z,15.52
2018-02-10T23:10:16.625Z,17.00
2018-02-10T23:12:45.826Z,19.17
2018-02-10T23:15:15.065Z,14.80
2018-02-10T23:17:44.360Z,15.23
2018-02-10T23:20:13.587Z,14.70
2018-02-10T23:22:42.824Z,14.48
2018-02-10T23:25:12.027Z,13.70
2018-02-10T23:27:41.248Z,14.05
2018-02-10T23:30:10.474Z,15.90
2018-02-10T23:32:39.696Z,12.40
2018-02-10T23:35:08.962Z,15.55
2018-02-10T23:37:38.244Z,15.90
2018-02-10T23:40:07.461Z,13.48
2018-02-10T23:42:36.665Z,16.37
2018-02-10T23:45:05.924Z,14.43
2018-02-10T23:47:35.153Z,14.63
2018-02-10T23:50:04.382Z,12.70
2018-02-10T23:52:33.605Z,14.85
2018-02-10T23:55:02.837Z,20.25
2018-02-10T23:57:32.062Z,24.10
